METAR Data
IDs: Format: Raw Decoded Include TAF

Data at: 1535 UTC 25 Jan 2020

METAR for:KFDK (Frederick Muni, MD, US)
Text:KFDK 251520Z 00000KT 5SM BR BKN017 OVC022 07/06 A2987
Temperature: 7.0°C ( 45°F)
Dewpoint: 6.0°C ( 43°F) [RH = 93%]
Pressure (altimeter):29.87 inches Hg (1011.6 mb)
Winds:calm
Visibility: 5 sm ( 8 km)
Ceiling:1700 feet AGL
Clouds: broken clouds at 1700 feet AGL, overcast cloud deck at 2200 feet AGL
Weather:BR (mist)